createdAt,value
2023-07-19T00:02:03.206Z,94.18
2023-07-19T00:04:29.693Z,93.75
2023-07-19T00:06:56.392Z,93.85
2023-07-19T00:09:22.837Z,94.22
2023-07-19T00:11:49.277Z,94.26
2023-07-19T00:14:15.785Z,94.32
2023-07-19T00:16:42.273Z,94.35
2023-07-19T00:19:19.267Z,94.61
2023-07-19T00:21:47.021Z,94.35
2023-07-19T00:24:13.515Z,94.34
2023-07-19T00:26:39.995Z,93.92
2023-07-19T00:29:06.689Z,93.90
2023-07-19T00:31:33.471Z,93.82
2023-07-19T00:34:00.158Z,93.83
2023-07-19T00:36:26.732Z,93.91
2023-07-19T00:38:53.207Z,93.89
2023-07-19T00:41:20.225Z,94.11
2023-07-19T00:43:48.677Z,94.45
2023-07-19T00:46:16.077Z,93.97
2023-07-19T00:48:43.580Z,93.97
2023-07-19T00:51:10.671Z,93.98
2023-07-19T00:53:40.044Z,93.97
2023-07-19T00:56:08.908Z,94.42
2023-07-19T00:58:36.801Z,94.62
2023-07-19T01:01:04.529Z,95.13
2023-07-19T01:03:31.276Z,94.67
2023-07-19T01:05:59.623Z,94.30
2023-07-19T01:08:26.988Z,94.34
2023-07-19T01:10:54.926Z,94.45
2023-07-19T01:13:21.446Z,95.18
2023-07-19T01:15:47.912Z,95.58
2023-07-19T01:18:14.443Z,95.34
2023-07-19T01:20:41.100Z,95.47
2023-07-19T01:23:07.848Z,95.51
2023-07-19T01:25:34.455Z,95.51
2023-07-19T01:28:01.691Z,96.01
2023-07-19T01:30:28.286Z,95.73
2023-07-19T01:32:55.099Z,96.00
2023-07-19T01:35:21.954Z,96.23
2023-07-19T01:37:48.404Z,96.24
2023-07-19T01:40:15.632Z,96.40
2023-07-19T01:42:42.156Z,96.18
2023-07-19T01:45:08.978Z,96.17
2023-07-19T01:47:35.545Z,96.59
2023-07-19T01:50:02.337Z,95.92
2023-07-19T01:52:28.798Z,95.80
2023-07-19T01:54:55.402Z,95.76
2023-07-19T01:57:23.231Z,95.78
2023-07-19T01:59:49.864Z,96.14
2023-07-19T02:02:16.510Z,96.13
2023-07-19T02:04:43.047Z,95.98
2023-07-19T02:07:09.533Z,96.06
2023-07-19T02:09:35.954Z,96.53
2023-07-19T02:12:02.736Z,96.80
2023-07-19T02:14:29.353Z,97.23
2023-07-19T02:16:56.404Z,97.74
2023-07-19T02:19:22.837Z,97.67
2023-07-19T02:21:49.241Z,97.56
2023-07-19T02:24:17.048Z,97.72
2023-07-19T02:26:44.022Z,97.98
2023-07-19T02:29:10.577Z,97.79
2023-07-19T02:31:38.618Z,97.60
2023-07-19T02:34:08.308Z,97.33
2023-07-19T02:36:35.331Z,97.52
2023-07-19T02:39:05.563Z,97.97
2023-07-19T02:41:32.928Z,97.67
2023-07-19T02:44:00.606Z,97.92
2023-07-19T02:46:27.236Z,97.89
2023-07-19T02:48:54.022Z,98.44
2023-07-19T02:51:20.707Z,98.53
2023-07-19T02:53:47.639Z,99.02
2023-07-19T02:56:14.123Z,99.58
2023-07-19T02:58:40.580Z,99.57
2023-07-19T03:01:07.845Z,99.26
2023-07-19T03:03:34.567Z,99.07
2023-07-19T03:06:03.168Z,98.93
2023-07-19T03:08:29.918Z,99.12
2023-07-19T03:10:56.373Z,99.37
2023-07-19T03:13:22.893Z,99.37
2023-07-19T03:15:49.883Z,99.49
2023-07-19T03:18:16.406Z,99.86
2023-07-19T03:20:42.894Z,100.00
2023-07-19T03:23:09.515Z,100.00
2023-07-19T03:25:36.146Z,100.00
2023-07-19T03:28:02.686Z,100.00
2023-07-19T03:30:29.313Z,100.00
2023-07-19T03:32:56.678Z,100.00
2023-07-19T03:35:23.204Z,100.00
2023-07-19T03:37:49.723Z,100.00
2023-07-19T03:40:16.415Z,100.00
2023-07-19T03:42:42.860Z,100.00
2023-07-19T03:45:09.579Z,100.00
2023-07-19T03:47:36.204Z,100.00
2023-07-19T03:50:02.951Z,100.00
2023-07-19T03:52:29.492Z,100.00
2023-07-19T03:54:57.752Z,100.00
2023-07-19T03:57:25.816Z,100.00
2023-07-19T03:59:52.298Z,100.00
2023-07-19T04:02:18.940Z,100.00
2023-07-19T04:04:45.446Z,100.00
2023-07-19T04:07:11.904Z,100.00
2023-07-19T04:09:39.157Z,100.00
2023-07-19T04:12:06.168Z,100.00
2023-07-19T04:14:33.290Z,100.00
2023-07-19T04:16:59.950Z,100.00
2023-07-19T04:19:26.479Z,100.00
2023-07-19T04:21:53.082Z,100.00
2023-07-19T04:24:19.528Z,100.00
2023-07-19T04:26:45.966Z,100.00
2023-07-19T04:29:12.443Z,100.00
2023-07-19T04:31:39.015Z,100.00
2023-07-19T04:34:05.658Z,100.00
2023-07-19T04:36:32.135Z,100.00
2023-07-19T04:38:58.651Z,100.00
2023-07-19T04:41:25.046Z,100.00
2023-07-19T04:43:52.392Z,100.00
2023-07-19T04:46:19.748Z,100.00
2023-07-19T04:48:46.457Z,100.00
2023-07-19T04:51:13.011Z,100.00
2023-07-19T04:53:39.670Z,100.00
2023-07-19T04:56:06.113Z,100.00
2023-07-19T04:58:32.675Z,100.00
2023-07-19T05:01:09.681Z,100.00
2023-07-19T05:03:36.928Z,100.00
2023-07-19T05:06:03.658Z,100.00
2023-07-19T05:08:31.518Z,99.94
2023-07-19T05:10:58.048Z,99.47
2023-07-19T05:13:24.489Z,98.11
2023-07-19T05:15:50.917Z,96.92
2023-07-19T05:18:17.481Z,96.74
2023-07-19T05:20:43.897Z,96.92
2023-07-19T05:23:11.497Z,96.29
2023-07-19T05:25:37.985Z,91.67
2023-07-19T05:28:04.521Z,90.15
2023-07-19T05:30:31.031Z,88.30
2023-07-19T05:32:58.111Z,85.94
2023-07-19T05:35:24.663Z,86.59
2023-07-19T05:37:51.132Z,87.35
2023-07-19T05:40:18.625Z,87.88
2023-07-19T05:42:45.115Z,87.08
2023-07-19T05:45:11.615Z,86.14
2023-07-19T05:47:38.168Z,86.83
2023-07-19T05:50:05.301Z,87.56
2023-07-19T05:52:31.886Z,87.97
2023-07-19T05:54:58.485Z,87.73
2023-07-19T05:57:25.060Z,88.28
2023-07-19T05:59:51.515Z,86.08
2023-07-19T06:02:18.313Z,84.74
2023-07-19T06:04:47.619Z,84.86
2023-07-19T06:07:16.608Z,84.80
2023-07-19T06:09:43.298Z,85.37
2023-07-19T06:12:10.113Z,85.08
2023-07-19T06:14:36.675Z,84.15
2023-07-19T06:17:03.869Z,81.83
2023-07-19T06:19:30.565Z,77.79
2023-07-19T06:21:57.053Z,75.52
2023-07-19T06:24:24.812Z,74.77
2023-07-19T06:26:51.341Z,70.90
2023-07-19T06:29:17.891Z,69.11
2023-07-19T06:31:44.473Z,71.21
2023-07-19T06:34:10.961Z,69.97
2023-07-19T06:36:38.864Z,69.40
2023-07-19T06:39:06.049Z,71.11
2023-07-19T06:41:32.846Z,69.19
2023-07-19T06:43:59.523Z,68.20
2023-07-19T06:46:26.205Z,67.42
2023-07-19T06:48:52.653Z,66.12
2023-07-19T06:51:19.483Z,59.13
2023-07-19T06:53:46.204Z,54.84
2023-07-19T06:56:12.647Z,54.09
2023-07-19T06:58:39.125Z,53.30
2023-07-19T07:01:05.667Z,50.49
2023-07-19T07:03:33.368Z,50.58
2023-07-19T07:06:03.101Z,46.91
2023-07-19T07:08:30.837Z,45.48
2023-07-19T07:11:00.418Z,48.72
2023-07-19T07:13:26.888Z,47.34
2023-07-19T07:15:53.428Z,47.12
2023-07-19T07:18:19.864Z,46.35
2023-07-19T07:20:46.583Z,46.69
2023-07-19T07:23:13.267Z,47.62
2023-07-19T07:25:39.753Z,46.36
2023-07-19T07:28:06.346Z,45.10
2023-07-19T07:30:38.325Z,46.03
2023-07-19T07:33:05.673Z,46.32
2023-07-19T07:35:32.203Z,44.20
2023-07-19T07:37:59.223Z,42.21
2023-07-19T07:40:25.807Z,44.84
2023-07-19T07:42:52.703Z,43.05
2023-07-19T07:45:19.528Z,42.93
2023-07-19T07:47:46.143Z,42.74
2023-07-19T07:50:12.820Z,42.52
2023-07-19T07:52:41.246Z,43.07
2023-07-19T07:55:08.216Z,42.20
2023-07-19T07:57:35.190Z,44.31
2023-07-19T08:00:02.539Z,44.79
2023-07-19T08:02:29.240Z,46.01
2023-07-19T08:04:56.060Z,47.38
2023-07-19T08:07:22.678Z,48.05
2023-07-19T08:09:49.140Z,49.08
2023-07-19T08:12:17.439Z,49.21
2023-07-19T08:14:44.764Z,48.45
2023-07-19T08:17:11.545Z,49.39
2023-07-19T08:19:38.130Z,49.88
2023-07-19T08:22:05.690Z,49.28
2023-07-19T08:24:33.038Z,51.32
2023-07-19T08:26:59.848Z,52.11
2023-07-19T08:29:29.474Z,53.67
2023-07-19T08:31:56.248Z,53.75
2023-07-19T08:34:23.197Z,53.65
2023-07-19T08:36:49.989Z,53.82
2023-07-19T08:39:16.851Z,53.47
2023-07-19T08:41:44.748Z,52.94
2023-07-19T08:44:11.844Z,52.89
2023-07-19T08:46:39.629Z,53.79
2023-07-19T08:49:06.380Z,55.50
2023-07-19T08:51:33.931Z,55.51
2023-07-19T08:54:01.265Z,57.68
2023-07-19T08:56:30.691Z,55.38
2023-07-19T08:58:57.241Z,56.94
2023-07-19T09:01:24.030Z,55.85
2023-07-19T09:03:51.062Z,57.85
2023-07-19T09:06:30.181Z,56.26
2023-07-19T09:08:57.009Z,56.05
2023-07-19T09:11:24.262Z,55.98
2023-07-19T09:13:59.737Z,56.48
2023-07-19T09:16:33.691Z,54.83
2023-07-19T09:19:02.151Z,56.40
2023-07-19T09:21:43.839Z,56.72
2023-07-19T09:24:11.597Z,55.38
2023-07-19T09:26:52.223Z,56.18
2023-07-19T09:29:22.916Z,55.86
2023-07-19T09:32:00.787Z,55.11
2023-07-19T09:34:37.266Z,52.76
2023-07-19T09:37:05.477Z,50.58
2023-07-19T09:39:35.418Z,51.88
2023-07-19T09:42:04.182Z,53.66
2023-07-19T09:44:31.912Z,55.09
2023-07-19T09:46:58.770Z,55.13
2023-07-19T09:49:26.406Z,53.76
2023-07-19T09:51:56.237Z,53.52
2023-07-19T09:54:25.736Z,53.11
2023-07-19T09:56:52.380Z,52.83
2023-07-19T09:59:24.239Z,52.71
2023-07-19T10:01:51.335Z,54.47
2023-07-19T10:04:22.687Z,55.95
2023-07-19T10:06:49.634Z,54.87
2023-07-19T10:09:25.326Z,55.56
2023-07-19T10:11:52.075Z,56.38
2023-07-19T10:14:34.089Z,58.18
2023-07-19T10:17:04.759Z,58.72
2023-07-19T10:19:33.412Z,59.05
2023-07-19T10:22:04.535Z,60.00
2023-07-19T10:24:32.885Z,59.48
2023-07-19T10:27:04.557Z,59.65
2023-07-19T10:29:45.334Z,59.84
2023-07-19T10:32:12.319Z,60.22
2023-07-19T10:34:44.807Z,57.07
2023-07-19T10:37:11.916Z,56.17
2023-07-19T10:39:38.389Z,56.33
2023-07-19T10:42:05.329Z,56.69
2023-07-19T10:44:32.662Z,58.24
2023-07-19T10:46:59.572Z,58.58
2023-07-19T10:49:28.996Z,59.08
2023-07-19T10:51:57.111Z,60.47
2023-07-19T10:54:24.438Z,60.96
2023-07-19T10:56:52.589Z,60.58
2023-07-19T10:59:19.753Z,60.98
2023-07-19T11:01:48.894Z,61.29
2023-07-19T11:04:15.853Z,59.29
2023-07-19T11:06:58.246Z,58.53
2023-07-19T11:09:26.181Z,59.64
2023-07-19T11:11:53.039Z,61.64
2023-07-19T11:14:30.552Z,61.44
2023-07-19T11:16:57.753Z,60.22
2023-07-19T11:19:41.660Z,61.05
2023-07-19T11:22:09.596Z,60.72
2023-07-19T11:24:40.352Z,58.04
2023-07-19T11:27:07.709Z,58.45
2023-07-19T11:29:35.335Z,57.02
2023-07-19T11:32:17.912Z,56.66
2023-07-19T11:34:52.938Z,58.00
2023-07-19T11:37:27.889Z,56.56
2023-07-19T11:39:59.948Z,55.21
2023-07-19T11:42:46.629Z,56.34
2023-07-19T11:45:27.365Z,57.03
2023-07-19T11:48:00.133Z,58.13
2023-07-19T11:50:27.288Z,57.96
2023-07-19T11:53:00.527Z,58.62
2023-07-19T11:55:28.069Z,57.63
2023-07-19T11:57:55.390Z,58.14
2023-07-19T12:00:25.119Z,58.77
2023-07-19T12:02:53.302Z,58.86
2023-07-19T12:05:21.863Z,58.83
2023-07-19T12:07:50.721Z,60.03
2023-07-19T12:10:19.064Z,59.19
2023-07-19T12:12:48.025Z,59.60
2023-07-19T12:15:14.573Z,59.02
2023-07-19T12:17:41.789Z,57.42
2023-07-19T12:20:09.555Z,59.44
2023-07-19T12:22:39.492Z,58.83
2023-07-19T12:25:06.327Z,60.37
2023-07-19T12:27:33.185Z,60.54
2023-07-19T12:30:03.754Z,62.62
2023-07-19T12:32:30.958Z,62.03
2023-07-19T12:34:57.478Z,61.52
2023-07-19T12:37:24.669Z,60.91
2023-07-19T12:39:51.568Z,59.10
2023-07-19T12:42:18.236Z,59.33
2023-07-19T12:44:44.868Z,57.10
2023-07-19T12:47:11.375Z,57.24
2023-07-19T12:49:37.878Z,56.91
2023-07-19T12:52:04.732Z,59.60
2023-07-19T12:54:33.236Z,57.82
2023-07-19T12:57:00.347Z,58.03
2023-07-19T12:59:26.835Z,56.81
2023-07-19T13:01:53.388Z,57.60
2023-07-19T13:04:19.908Z,56.58
2023-07-19T13:06:46.400Z,58.64
2023-07-19T13:09:13.012Z,57.43
2023-07-19T13:11:40.319Z,58.09
2023-07-19T13:14:07.533Z,57.92
2023-07-19T13:16:34.469Z,56.64
2023-07-19T13:19:01.393Z,56.55
2023-07-19T13:21:28.297Z,56.74
2023-07-19T13:23:54.769Z,57.30
2023-07-19T13:26:21.806Z,56.42
2023-07-19T13:28:49.996Z,54.94
2023-07-19T13:31:17.976Z,54.08
2023-07-19T13:33:44.606Z,53.46
2023-07-19T13:38:42.426Z,56.66
2023-07-19T13:41:10.986Z,57.12
2023-07-19T13:43:37.422Z,56.61
2023-07-19T13:46:04.029Z,57.83
2023-07-19T13:48:30.599Z,57.32
2023-07-19T13:50:58.496Z,58.12
2023-07-19T13:53:25.054Z,59.29
2023-07-19T13:55:51.611Z,58.02
2023-07-19T13:58:18.119Z,58.59
2023-07-19T14:00:44.620Z,58.09
2023-07-19T14:03:12.365Z,54.70
2023-07-19T14:05:40.085Z,54.83
2023-07-19T14:08:06.964Z,54.74
2023-07-19T14:10:33.491Z,55.41
2023-07-19T14:13:00.517Z,56.48
2023-07-19T14:15:27.272Z,53.72
2023-07-19T14:17:53.871Z,54.92
2023-07-19T14:20:20.674Z,52.70
2023-07-19T14:22:47.232Z,51.54
2023-07-19T14:25:15.090Z,50.81
2023-07-19T14:27:41.734Z,52.58
2023-07-19T14:30:10.825Z,52.00
2023-07-19T14:32:38.438Z,52.95
2023-07-19T14:35:05.853Z,52.08
2023-07-19T14:37:32.607Z,51.88
2023-07-19T14:39:59.394Z,52.29
2023-07-19T14:42:27.692Z,51.65
2023-07-19T14:44:54.446Z,51.91
2023-07-19T14:47:21.386Z,53.04
2023-07-19T14:49:48.000Z,50.36
2023-07-19T14:52:14.709Z,50.74
2023-07-19T14:54:41.817Z,51.27
2023-07-19T14:57:08.404Z,52.83
2023-07-19T14:59:34.908Z,53.60
2023-07-19T15:02:01.831Z,53.31
2023-07-19T15:04:28.975Z,53.21
2023-07-19T15:06:55.578Z,53.60
2023-07-19T15:09:22.674Z,54.36
2023-07-19T15:11:51.155Z,55.25
2023-07-19T15:14:18.125Z,54.88
2023-07-19T15:16:44.960Z,54.06
2023-07-19T15:19:11.928Z,55.65
2023-07-19T15:21:41.597Z,56.88
2023-07-19T15:24:10.033Z,56.32
2023-07-19T15:26:37.592Z,56.87
2023-07-19T15:29:06.933Z,57.13
2023-07-19T15:31:34.334Z,57.36
2023-07-19T15:34:02.941Z,57.73
2023-07-19T15:36:30.075Z,58.57
2023-07-19T15:38:57.014Z,58.15
2023-07-19T15:41:24.905Z,59.74
2023-07-19T15:43:51.875Z,58.14
2023-07-19T15:46:18.541Z,59.33
2023-07-19T15:48:45.368Z,59.11
2023-07-19T15:51:12.039Z,58.58
2023-07-19T15:53:38.909Z,57.19
2023-07-19T15:56:09.583Z,57.96
2023-07-19T15:58:36.868Z,57.24
2023-07-19T16:01:08.635Z,57.64
2023-07-19T16:03:36.908Z,57.36
2023-07-19T16:06:04.269Z,57.63
2023-07-19T16:08:33.400Z,56.87
2023-07-19T16:10:59.927Z,57.34
2023-07-19T16:13:26.417Z,56.63
2023-07-19T16:15:52.913Z,57.40
2023-07-19T16:18:19.483Z,58.04
2023-07-19T16:20:46.826Z,58.37
2023-07-19T16:23:14.775Z,58.50
2023-07-19T16:25:41.341Z,58.52
2023-07-19T16:28:07.869Z,59.39
2023-07-19T16:30:35.003Z,57.25
2023-07-19T16:33:01.980Z,57.84
2023-07-19T16:35:29.707Z,58.04
2023-07-19T16:37:56.239Z,58.93
2023-07-19T16:40:22.670Z,58.84
2023-07-19T16:42:49.332Z,59.43
2023-07-19T16:45:15.815Z,59.12
2023-07-19T16:47:42.453Z,61.40
2023-07-19T16:50:12.341Z,60.48
2023-07-19T16:52:43.776Z,59.75
2023-07-19T16:55:11.578Z,59.98
2023-07-19T16:57:39.056Z,59.34
2023-07-19T17:00:17.271Z,60.28
2023-07-19T17:02:45.051Z,60.91
2023-07-19T17:05:11.577Z,60.81
2023-07-19T17:07:38.052Z,60.58
2023-07-19T17:10:05.001Z,61.05
2023-07-19T17:12:31.719Z,61.36
2023-07-19T17:14:58.557Z,61.63
2023-07-19T17:17:25.222Z,60.87
2023-07-19T17:19:51.696Z,62.88
2023-07-19T17:22:18.198Z,62.41
2023-07-19T17:24:44.656Z,62.26
2023-07-19T17:27:11.180Z,62.70
2023-07-19T17:29:37.648Z,62.82
2023-07-19T17:32:04.533Z,63.65
2023-07-19T17:34:31.015Z,63.47
2023-07-19T17:36:57.546Z,63.19
2023-07-19T17:39:24.048Z,63.68
2023-07-19T17:41:50.525Z,63.35
2023-07-19T17:44:16.957Z,64.43
2023-07-19T17:46:43.815Z,63.76
2023-07-19T17:49:10.272Z,63.52
2023-07-19T17:51:36.804Z,63.42
2023-07-19T17:54:03.310Z,63.82
2023-07-19T17:56:29.828Z,64.13
2023-07-19T17:58:56.354Z,64.30
2023-07-19T18:01:23.120Z,64.59
2023-07-19T18:03:49.941Z,65.60
2023-07-19T18:06:16.902Z,65.61
2023-07-19T18:08:43.353Z,65.39
2023-07-19T18:11:09.907Z,65.01
2023-07-19T18:13:37.641Z,65.03
2023-07-19T18:16:04.397Z,64.90
2023-07-19T18:18:30.804Z,65.47
2023-07-19T18:20:57.294Z,65.74
2023-07-19T18:23:23.876Z,65.85
2023-07-19T18:25:50.430Z,66.96
2023-07-19T18:28:16.913Z,67.96
2023-07-19T18:30:43.535Z,67.43
2023-07-19T18:33:12.769Z,67.83
2023-07-19T18:35:40.996Z,68.67
2023-07-19T18:38:07.988Z,68.63
2023-07-19T18:40:34.497Z,69.22
2023-07-19T18:43:01.593Z,69.21
2023-07-19T18:45:28.053Z,69.93
2023-07-19T18:47:54.616Z,69.89
2023-07-19T18:50:21.181Z,69.95
2023-07-19T18:52:49.527Z,69.82
2023-07-19T18:55:15.998Z,69.66
2023-07-19T18:57:42.543Z,70.08
2023-07-19T19:00:09.426Z,70.20
2023-07-19T19:02:36.248Z,70.14
2023-07-19T19:05:03.838Z,70.93
2023-07-19T19:07:30.352Z,71.46
2023-07-19T19:09:56.770Z,71.93
2023-07-19T19:12:23.309Z,72.03
2023-07-19T19:14:49.817Z,72.33
2023-07-19T19:17:16.372Z,72.51
2023-07-19T19:19:43.135Z,72.75
2023-07-19T19:22:10.041Z,73.43
2023-07-19T19:24:36.694Z,73.05
2023-07-19T19:27:03.152Z,73.50
2023-07-19T19:29:29.571Z,73.67
2023-07-19T19:31:56.876Z,73.68
2023-07-19T19:34:23.530Z,73.54
2023-07-19T19:36:50.295Z,73.78
2023-07-19T19:39:29.186Z,73.97
2023-07-19T19:41:58.190Z,73.96
2023-07-19T19:44:24.668Z,74.03
2023-07-19T19:46:51.618Z,74.73
2023-07-19T19:49:18.510Z,75.05
2023-07-19T19:51:45.137Z,75.16
2023-07-19T19:54:12.937Z,75.54
2023-07-19T19:56:39.750Z,75.75
2023-07-19T19:59:07.297Z,76.07
2023-07-19T20:01:34.305Z,76.37
2023-07-19T20:06:30.890Z,77.58
2023-07-19T20:09:02.443Z,77.40
2023-07-19T20:11:29.964Z,77.08
2023-07-19T20:13:56.710Z,77.13
2023-07-19T20:16:24.158Z,77.20
2023-07-19T20:18:50.973Z,77.53
2023-07-19T20:21:17.767Z,77.82
2023-07-19T20:23:44.285Z,78.29
2023-07-19T20:26:14.775Z,77.91
2023-07-19T20:28:43.188Z,78.00
2023-07-19T20:31:09.595Z,78.20
2023-07-19T20:33:36.236Z,78.45
2023-07-19T20:36:06.597Z,78.72
2023-07-19T20:43:33.097Z,79.01
2023-07-19T20:45:59.755Z,78.99
2023-07-19T20:48:27.216Z,79.29
2023-07-19T20:51:00.405Z,79.14
2023-07-19T20:53:26.937Z,79.73
2023-07-19T20:55:53.447Z,79.84
2023-07-19T20:58:19.923Z,80.15
2023-07-19T21:00:46.918Z,80.65
2023-07-19T21:03:13.510Z,80.95
2023-07-19T21:05:40.053Z,81.14
2023-07-19T21:08:06.600Z,81.21
2023-07-19T21:10:35.107Z,81.68
2023-07-19T21:13:02.733Z,81.59
2023-07-19T21:15:29.449Z,82.47
2023-07-19T21:17:56.056Z,82.66
2023-07-19T21:20:23.262Z,82.92
2023-07-19T21:22:55.734Z,82.86
2023-07-19T21:25:22.249Z,83.30
2023-07-19T21:27:48.853Z,83.14
2023-07-19T21:30:15.313Z,83.70
2023-07-19T21:32:42.783Z,83.96
2023-07-19T21:35:09.777Z,84.25
2023-07-19T21:37:36.514Z,84.77
2023-07-19T21:40:03.613Z,84.49
2023-07-19T21:42:31.653Z,84.94
2023-07-19T21:44:58.449Z,84.73
2023-07-19T21:47:25.079Z,85.06
2023-07-19T21:49:51.565Z,85.67
2023-07-19T21:52:18.572Z,86.33
2023-07-19T21:54:45.018Z,88.53
2023-07-19T21:57:11.445Z,88.98
2023-07-19T21:59:40.228Z,89.43
2023-07-19T22:02:07.905Z,90.44
2023-07-19T22:04:34.452Z,90.83
2023-07-19T22:07:00.905Z,91.63
2023-07-19T22:09:27.392Z,91.81
2023-07-19T22:11:53.868Z,92.15
2023-07-19T22:14:20.386Z,92.68
2023-07-19T22:16:49.854Z,92.51
2023-07-19T22:19:17.414Z,92.24
2023-07-19T22:21:44.261Z,91.52
2023-07-19T22:24:10.702Z,90.95
2023-07-19T22:26:37.303Z,90.72
2023-07-19T22:29:05.907Z,91.09
2023-07-19T22:31:34.585Z,91.23
2023-07-19T22:34:01.597Z,91.25
2023-07-19T22:36:28.193Z,91.40
2023-07-19T22:38:54.834Z,91.56
2023-07-19T22:41:22.317Z,91.63
2023-07-19T22:43:48.913Z,91.54
2023-07-19T22:46:16.466Z,91.15
2023-07-19T22:48:43.055Z,90.88
2023-07-19T22:51:11.775Z,91.00
2023-07-19T22:53:38.412Z,91.10
2023-07-19T22:56:06.152Z,91.58
2023-07-19T22:58:33.065Z,91.81
2023-07-19T23:00:59.621Z,91.88
2023-07-19T23:03:26.318Z,92.06
2023-07-19T23:05:53.512Z,92.68
2023-07-19T23:08:20.614Z,93.06
2023-07-19T23:10:48.221Z,93.17
2023-07-19T23:13:14.930Z,93.70
2023-07-19T23:15:41.435Z,93.81
2023-07-19T23:18:08.151Z,93.88
2023-07-19T23:20:34.799Z,93.96
2023-07-19T23:23:01.578Z,94.09
2023-07-19T23:25:28.142Z,94.52
2023-07-19T23:28:01.247Z,94.52
2023-07-19T23:30:28.899Z,95.01
2023-07-19T23:32:55.665Z,95.35
2023-07-19T23:35:22.158Z,96.32
2023-07-19T23:37:48.595Z,97.21
2023-07-19T23:40:15.221Z,97.49
2023-07-19T23:42:42.752Z,98.05
2023-07-19T23:45:10.563Z,98.23
2023-07-19T23:47:37.268Z,98.45
2023-07-19T23:50:05.043Z,98.89
2023-07-19T23:52:32.278Z,99.18
2023-07-19T23:54:59.059Z,99.00
2023-07-19T23:57:25.670Z,99.40
2023-07-19T23:59:52.316Z,99.65
